sensor_id;sensor_type;location;lat;lon;timestamp;pressure;altitude;pressure_sealevel;temperature;humidity
70546;BME280;58098;51.680;5.134;2023-05-12T00:02:16;101705.53;;;12.37;100.00
70546;BME280;58098;51.680;5.134;2023-05-12T00:04:41;101711.31;;;12.30;100.00
70546;BME280;58098;51.680;5.134;2023-05-12T00:07:07;101711.94;;;12.33;100.00
70546;BME280;58098;51.680;5.134;2023-05-12T00:09:32;101720.53;;;12.35;100.00
70546;BME280;58098;51.680;5.134;2023-05-12T00:11:58;101698.69;;;12.24;100.00
70546;BME280;58098;51.680;5.134;2023-05-12T00:14:23;101710.59;;;12.28;100.00
70546;BME280;58098;51.680;5.134;2023-05-12T00:16:49;101693.47;;;12.24;100.00
70546;BME280;58098;51.680;5.134;2023-05-12T00:19:19;101707.66;;;12.32;100.00
70546;BME280;58098;51.680;5.134;2023-05-12T00:21:45;101709.03;;;12.25;100.00
70546;BME280;58098;51.680;5.134;2023-05-12T00:24:11;101697.56;;;12.15;100.00
70546;BME280;58098;51.680;5.134;2023-05-12T00:26:36;101699.00;;;12.19;100.00
70546;BME280;58098;51.680;5.134;2023-05-12T00:29:02;101709.25;;;12.22;100.00
70546;BME280;58098;51.680;5.134;2023-05-12T00:31:28;101695.66;;;12.17;100.00
70546;BME280;58098;51.680;5.134;2023-05-12T00:33:54;101704.56;;;12.15;100.00
70546;BME280;58098;51.680;5.134;2023-05-12T00:36:19;101706.38;;;12.14;100.00
70546;BME280;58098;51.680;5.134;2023-05-12T00:38:45;101703.13;;;12.11;100.00
70546;BME280;58098;51.680;5.134;2023-05-12T00:41:10;101689.88;;;12.01;100.00
70546;BME280;58098;51.680;5.134;2023-05-12T00:43:36;101695.53;;;11.95;100.00
70546;BME280;58098;51.680;5.134;2023-05-12T00:46:03;101694.97;;;12.03;100.00
70546;BME280;58098;51.680;5.134;2023-05-12T00:48:30;101700.13;;;12.04;100.00
70546;BME280;58098;51.680;5.134;2023-05-12T00:50:56;101703.56;;;12.05;100.00
70546;BME280;58098;51.680;5.134;2023-05-12T00:53:23;101695.09;;;12.01;100.00
70546;BME280;58098;51.680;5.134;2023-05-12T00:55:48;101690.94;;;11.99;100.00
70546;BME280;58098;51.680;5.134;2023-05-12T00:58:13;101693.66;;;11.97;100.00
70546;BME280;58098;51.680;5.134;2023-05-12T01:00:39;101695.75;;;11.92;100.00
70546;BME280;58098;51.680;5.134;2023-05-12T01:03:04;101684.28;;;11.82;100.00
70546;BME280;58098;51.680;5.134;2023-05-12T01:05:34;101699.53;;;11.88;100.00
70546;BME280;58098;51.680;5.134;2023-05-12T01:08:01;101691.06;;;11.84;100.00
70546;BME280;58098;51.680;5.134;2023-05-12T01:10:27;101685.22;;;11.81;100.00
70546;BME280;58098;51.680;5.134;2023-05-12T01:12:52;101688.66;;;11.81;100.00
70546;BME280;58098;51.680;5.134;2023-05-12T01:15:18;101680.44;;;11.75;100.00
70546;BME280;58098;51.680;5.134;2023-05-12T01:17:52;101685.53;;;11.64;100.00
70546;BME280;58098;51.680;5.134;2023-05-12T01:20:21;101672.06;;;11.57;100.00
70546;BME280;58098;51.680;5.134;2023-05-12T01:22:48;101670.16;;;11.47;100.00
70546;BME280;58098;51.680;5.134;2023-05-12T01:25:14;101673.94;;;11.55;100.00
70546;BME280;58098;51.680;5.134;2023-05-12T01:27:40;101682.63;;;11.56;100.00
70546;BME280;58098;51.680;5.134;2023-05-12T01:30:07;101675.63;;;11.44;100.00
70546;BME280;58098;51.680;5.134;2023-05-12T01:32:34;101670.41;;;11.44;100.00
70546;BME280;58098;51.680;5.134;2023-05-12T01:35:00;101675.06;;;11.51;100.00
70546;BME280;58098;51.680;5.134;2023-05-12T01:37:25;101671.03;;;11.35;100.00
70546;BME280;58098;51.680;5.134;2023-05-12T01:39:52;101642.59;;;11.17;100.00
70546;BME280;58098;51.680;5.134;2023-05-12T01:42:18;101676.56;;;11.43;100.00
70546;BME280;58098;51.680;5.134;2023-05-12T01:44:43;101677.81;;;11.37;100.00
70546;BME280;58098;51.680;5.134;2023-05-12T01:47:08;101681.69;;;11.44;100.00
70546;BME280;58098;51.680;5.134;2023-05-12T01:49:36;101678.25;;;11.44;100.00
70546;BME280;58098;51.680;5.134;2023-05-12T01:52:01;101673.75;;;11.46;100.00
70546;BME280;58098;51.680;5.134;2023-05-12T01:54:27;101679.28;;;11.41;100.00
70546;BME280;58098;51.680;5.134;2023-05-12T01:56:52;101671.13;;;11.46;100.00
70546;BME280;58098;51.680;5.134;2023-05-12T01:59:17;101670.09;;;11.48;100.00
70546;BME280;58098;51.680;5.134;2023-05-12T02:01:42;101670.41;;;11.44;100.00
70546;BME280;58098;51.680;5.134;2023-05-12T02:04:08;101666.75;;;11.46;100.00
70546;BME280;58098;51.680;5.134;2023-05-12T02:06:33;101669.13;;;11.49;100.00
70546;BME280;58098;51.680;5.134;2023-05-12T02:08:58;101658.59;;;11.38;100.00
70546;BME280;58098;51.680;5.134;2023-05-12T02:11:24;101659.63;;;11.48;100.00
70546;BME280;58098;51.680;5.134;2023-05-12T02:13:50;101657.44;;;11.42;100.00
70546;BME280;58098;51.680;5.134;2023-05-12T02:16:15;101659.00;;;11.45;100.00
70546;BME280;58098;51.680;5.134;2023-05-12T02:18:41;101654.63;;;11.33;100.00
70546;BME280;58098;51.680;5.134;2023-05-12T02:21:06;101646.06;;;11.31;100.00
70546;BME280;58098;51.680;5.134;2023-05-12T02:23:31;101637.16;;;11.33;100.00
70546;BME280;58098;51.680;5.134;2023-05-12T02:25:57;101633.72;;;11.33;100.00
70546;BME280;58098;51.680;5.134;2023-05-12T02:28:22;101625.16;;;11.31;100.00
70546;BME280;58098;51.680;5.134;2023-05-12T02:30:49;101650.22;;;11.46;100.00
70546;BME280;58098;51.680;5.134;2023-05-12T02:33:15;101640.81;;;11.43;100.00
70546;BME280;58098;51.680;5.134;2023-05-12T02:35:42;101642.47;;;11.44;100.00
70546;BME280;58098;51.680;5.134;2023-05-12T02:38:07;101642.59;;;11.43;100.00
70546;BME280;58098;51.680;5.134;2023-05-12T02:40:33;101636.84;;;11.38;100.00
70546;BME280;58098;51.680;5.134;2023-05-12T02:42:58;101617.09;;;11.34;100.00
70546;BME280;58098;51.680;5.134;2023-05-12T02:45:23;101640.81;;;11.43;100.00
70546;BME280;58098;51.680;5.134;2023-05-12T02:47:49;101638.81;;;11.47;100.00
70546;BME280;58098;51.680;5.134;2023-05-12T02:50:15;101621.88;;;11.40;100.00
70546;BME280;58098;51.680;5.134;2023-05-12T02:52:40;101629.06;;;11.49;100.00
70546;BME280;58098;51.680;5.134;2023-05-12T02:55:06;101616.56;;;11.41;100.00
70546;BME280;58098;51.680;5.134;2023-05-12T02:57:31;101617.38;;;11.42;100.00
70546;BME280;58098;51.680;5.134;2023-05-12T02:59:59;101629.31;;;11.46;100.00
70546;BME280;58098;51.680;5.134;2023-05-12T03:02:24;101597.59;;;11.26;100.00
70546;BME280;58098;51.680;5.134;2023-05-12T03:04:50;101610.72;;;11.38;100.00
70546;BME280;58098;51.680;5.134;2023-05-12T03:07:15;101622.91;;;11.50;100.00
70546;BME280;58098;51.680;5.134;2023-05-12T03:09:40;101622.19;;;11.48;100.00
70546;BME280;58098;51.680;5.134;2023-05-12T03:12:06;101615.09;;;11.50;100.00
70546;BME280;58098;51.680;5.134;2023-05-12T03:14:32;101622.00;;;11.51;100.00
70546;BME280;58098;51.680;5.134;2023-05-12T03:16:57;101601.72;;;11.42;100.00
70546;BME280;58098;51.680;5.134;2023-05-12T03:19:23;101609.84;;;11.50;100.00
70546;BME280;58098;51.680;5.134;2023-05-12T03:21:48;101615.28;;;11.47;100.00
70546;BME280;58098;51.680;5.134;2023-05-12T03:24:13;101607.56;;;11.45;100.00
70546;BME280;58098;51.680;5.134;2023-05-12T03:26:38;101611.53;;;11.51;100.00
70546;BME280;58098;51.680;5.134;2023-05-12T03:29:05;101588.66;;;11.42;100.00
70546;BME280;58098;51.680;5.134;2023-05-12T03:31:30;101583.22;;;11.45;100.00
70546;BME280;58098;51.680;5.134;2023-05-12T03:33:55;101595.00;;;11.50;100.00
70546;BME280;58098;51.680;5.134;2023-05-12T03:36:21;101588.44;;;11.45;100.00
70546;BME280;58098;51.680;5.134;2023-05-12T03:38:46;101592.72;;;11.46;100.00
70546;BME280;58098;51.680;5.134;2023-05-12T03:41:11;101576.53;;;11.41;100.00
70546;BME280;58098;51.680;5.134;2023-05-12T03:43:37;101566.28;;;11.38;100.00
70546;BME280;58098;51.680;5.134;2023-05-12T03:46:02;101574.75;;;11.41;100.00
70546;BME280;58098;51.680;5.134;2023-05-12T03:48:27;101591.34;;;11.53;100.00
70546;BME280;58098;51.680;5.134;2023-05-12T03:50:53;101583.72;;;11.50;100.00
70546;BME280;58098;51.680;5.134;2023-05-12T03:53:18;101589.66;;;11.52;100.00
70546;BME280;58098;51.680;5.134;2023-05-12T03:55:43;101597.94;;;11.58;100.00
70546;BME280;58098;51.680;5.134;2023-05-12T03:58:09;101575.38;;;11.45;100.00
70546;BME280;58098;51.680;5.134;2023-05-12T04:00:34;101582.28;;;11.46;100.00
70546;BME280;58098;51.680;5.134;2023-05-12T04:02:59;101584.34;;;11.53;100.00
70546;BME280;58098;51.680;5.134;2023-05-12T04:05:25;101590.84;;;11.48;100.00
70546;BME280;58098;51.680;5.134;2023-05-12T04:07:50;101584.16;;;11.44;100.00
70546;BME280;58098;51.680;5.134;2023-05-12T04:10:16;101575.38;;;11.45;100.00
70546;BME280;58098;51.680;5.134;2023-05-12T04:12:42;101573.25;;;11.50;100.00
70546;BME280;58098;51.680;5.134;2023-05-12T04:15:07;101576.09;;;11.47;100.00
70546;BME280;58098;51.680;5.134;2023-05-12T04:17:33;101588.34;;;11.46;100.00
70546;BME280;58098;51.680;5.134;2023-05-12T04:19:58;101591.25;;;11.42;100.00
70546;BME280;58098;51.680;5.134;2023-05-12T04:22:25;101575.56;;;11.42;100.00
70546;BME280;58098;51.680;5.134;2023-05-12T04:24:50;101592.81;;;11.44;100.00
70546;BME280;58098;51.680;5.134;2023-05-12T04:27:15;101574.13;;;11.38;100.00
70546;BME280;58098;51.680;5.134;2023-05-12T04:29:40;101577.25;;;11.43;100.00
70546;BME280;58098;51.680;5.134;2023-05-12T04:32:06;101590.63;;;11.51;100.00
70546;BME280;58098;51.680;5.134;2023-05-12T04:34:32;101585.09;;;11.43;100.00
70546;BME280;58098;51.680;5.134;2023-05-12T04:36:57;101600.56;;;11.46;100.00
70546;BME280;58098;51.680;5.134;2023-05-12T04:39:22;101587.38;;;11.47;100.00
70546;BME280;58098;51.680;5.134;2023-05-12T04:41:47;101580.41;;;11.35;100.00
70546;BME280;58098;51.680;5.134;2023-05-12T04:44:13;101597.84;;;11.47;100.00
70546;BME280;58098;51.680;5.134;2023-05-12T04:46:38;101589.41;;;11.44;100.00
70546;BME280;58098;51.680;5.134;2023-05-12T04:49:03;101600.44;;;11.47;100.00
70546;BME280;58098;51.680;5.134;2023-05-12T04:51:29;101586.66;;;11.45;100.00
70546;BME280;58098;51.680;5.134;2023-05-12T04:53:54;101587.25;;;11.49;100.00
70546;BME280;58098;51.680;5.134;2023-05-12T04:56:19;101607.13;;;11.51;100.00
70546;BME280;58098;51.680;5.134;2023-05-12T04:58:46;101604.22;;;11.56;100.00
70546;BME280;58098;51.680;5.134;2023-05-12T05:01:11;101579.34;;;11.50;100.00
70546;BME280;58098;51.680;5.134;2023-05-12T05:03:38;101600.84;;;11.54;100.00
70546;BME280;58098;51.680;5.134;2023-05-12T05:06:03;101594.38;;;11.47;100.00
70546;BME280;58098;51.680;5.134;2023-05-12T05:08:29;101612.56;;;11.61;100.00
70546;BME280;58098;51.680;5.134;2023-05-12T05:10:54;101613.16;;;11.64;100.00
70546;BME280;58098;51.680;5.134;2023-05-12T05:13:20;101611.41;;;11.65;100.00
70546;BME280;58098;51.680;5.134;2023-05-12T05:15:49;101610.88;;;11.60;100.00
70546;BME280;58098;51.680;5.134;2023-05-12T05:18:15;101604.94;;;11.58;100.00
70546;BME280;58098;51.680;5.134;2023-05-12T05:20:40;101612.31;;;11.64;100.00
70546;BME280;58098;51.680;5.134;2023-05-12T05:23:06;101604.59;;;11.62;100.00
70546;BME280;58098;51.680;5.134;2023-05-12T05:25:33;101611.72;;;11.73;100.00
70546;BME280;58098;51.680;5.134;2023-05-12T05:27:58;101623.13;;;11.72;100.00
70546;BME280;58098;51.680;5.134;2023-05-12T05:30:24;101622.28;;;11.71;100.00
70546;BME280;58098;51.680;5.134;2023-05-12T05:32:49;101611.09;;;11.69;100.00
70546;BME280;58098;51.680;5.134;2023-05-12T05:35:14;101621.00;;;11.77;100.00
70546;BME280;58098;51.680;5.134;2023-05-12T05:37:40;101627.09;;;11.77;100.00
70546;BME280;58098;51.680;5.134;2023-05-12T05:40:06;101622.91;;;11.75;100.00
70546;BME280;58098;51.680;5.134;2023-05-12T05:42:31;101626.75;;;11.82;100.00
70546;BME280;58098;51.680;5.134;2023-05-12T05:44:57;101631.78;;;11.85;100.00
70546;BME280;58098;51.680;5.134;2023-05-12T05:47:22;101617.34;;;11.79;100.00
70546;BME280;58098;51.680;5.134;2023-05-12T05:49:47;101623.91;;;11.85;100.00
70546;BME280;58098;51.680;5.134;2023-05-12T05:52:13;101634.44;;;11.96;100.00
70546;BME280;58098;51.680;5.134;2023-05-12T05:54:38;101634.44;;;11.96;100.00
70546;BME280;58098;51.680;5.134;2023-05-12T05:57:03;101627.00;;;11.90;100.00
70546;BME280;58098;51.680;5.134;2023-05-12T05:59:29;101625.66;;;11.97;100.00
70546;BME280;58098;51.680;5.134;2023-05-12T06:01:54;101630.94;;;12.08;100.00
70546;BME280;58098;51.680;5.134;2023-05-12T06:04:19;101639.78;;;12.18;100.00
70546;BME280;58098;51.680;5.134;2023-05-12T06:06:45;101639.44;;;12.23;100.00
70546;BME280;58098;51.680;5.134;2023-05-12T06:09:10;101629.47;;;12.28;100.00
70546;BME280;58098;51.680;5.134;2023-05-12T06:11:36;101618.19;;;12.27;100.00
70546;BME280;58098;51.680;5.134;2023-05-12T06:14:02;101651.94;;;12.54;100.00
70546;BME280;58098;51.680;5.134;2023-05-12T06:16:27;101644.22;;;12.52;100.00
70546;BME280;58098;51.680;5.134;2023-05-12T06:18:53;101652.34;;;12.61;100.00
70546;BME280;58098;51.680;5.134;2023-05-12T06:21:18;101646.28;;;12.60;100.00
70546;BME280;58098;51.680;5.134;2023-05-12T06:23:43;101653.31;;;12.71;100.00
70546;BME280;58098;51.680;5.134;2023-05-12T06:26:09;101646.56;;;12.79;100.00
70546;BME280;58098;51.680;5.134;2023-05-12T06:28:35;101650.28;;;12.99;100.00
70546;BME280;58098;51.680;5.134;2023-05-12T06:31:01;101652.56;;;13.03;100.00
70546;BME280;58098;51.680;5.134;2023-05-12T06:33:26;101643.44;;;13.20;100.00
70546;BME280;58098;51.680;5.134;2023-05-12T06:35:52;101651.91;;;13.46;100.00
70546;BME280;58098;51.680;5.134;2023-05-12T06:38:17;101654.66;;;13.55;100.00
70546;BME280;58098;51.680;5.134;2023-05-12T06:40:43;101657.50;;;13.74;100.00
70546;BME280;58098;51.680;5.134;2023-05-12T06:43:08;101673.69;;;13.90;100.00
70546;BME280;58098;51.680;5.134;2023-05-12T06:45:33;101655.03;;;14.05;100.00
70546;BME280;58098;51.680;5.134;2023-05-12T06:47:59;101650.63;;;14.16;100.00
70546;BME280;58098;51.680;5.134;2023-05-12T06:50:25;101659.28;;;14.28;100.00
70546;BME280;58098;51.680;5.134;2023-05-12T06:52:51;101662.03;;;14.37;100.00
70546;BME280;58098;51.680;5.134;2023-05-12T06:55:16;101670.47;;;14.41;100.00
70546;BME280;58098;51.680;5.134;2023-05-12T06:57:44;101679.72;;;14.56;100.00
70546;BME280;58098;51.680;5.134;2023-05-12T07:00:09;101660.63;;;14.54;100.00
70546;BME280;58098;51.680;5.134;2023-05-12T07:02:35;101668.78;;;14.72;100.00
70546;BME280;58098;51.680;5.134;2023-05-12T07:05:00;101646.47;;;14.66;100.00
70546;BME280;58098;51.680;5.134;2023-05-12T07:07:26;101683.81;;;15.01;100.00
70546;BME280;58098;51.680;5.134;2023-05-12T07:09:51;101682.03;;;15.11;100.00
70546;BME280;58098;51.680;5.134;2023-05-12T07:12:16;101691.09;;;15.18;100.00
70546;BME280;58098;51.680;5.134;2023-05-12T07:14:42;101691.25;;;15.27;100.00
70546;BME280;58098;51.680;5.134;2023-05-12T07:17:07;101685.75;;;15.30;100.00
70546;BME280;58098;51.680;5.134;2023-05-12T07:19:32;101693.09;;;15.36;100.00
70546;BME280;58098;51.680;5.134;2023-05-12T07:21:59;101689.78;;;15.34;100.00
70546;BME280;58098;51.680;5.134;2023-05-12T07:24:25;101694.09;;;15.35;100.00
70546;BME280;58098;51.680;5.134;2023-05-12T07:26:51;101700.75;;;15.39;100.00
70546;BME280;58098;51.680;5.134;2023-05-12T07:29:17;101700.03;;;15.37;100.00
70546;BME280;58098;51.680;5.134;2023-05-12T07:31:42;101699.59;;;15.52;100.00
70546;BME280;58098;51.680;5.134;2023-05-12T07:34:08;101696.72;;;15.65;100.00
70546;BME280;58098;51.680;5.134;2023-05-12T07:36:33;101703.28;;;15.70;100.00
70546;BME280;58098;51.680;5.134;2023-05-12T07:38:58;101699.97;;;15.78;100.00
70546;BME280;58098;51.680;5.134;2023-05-12T07:41:24;101698.28;;;15.77;100.00
70546;BME280;58098;51.680;5.134;2023-05-12T07:43:49;101699.31;;;15.85;100.00
70546;BME280;58098;51.680;5.134;2023-05-12T07:46:14;101705.47;;;16.05;100.00
70546;BME280;58098;51.680;5.134;2023-05-12T07:48:40;101703.88;;;16.33;100.00
70546;BME280;58098;51.680;5.134;2023-05-12T07:51:06;101706.34;;;16.44;100.00
70546;BME280;58098;51.680;5.134;2023-05-12T07:53:31;101718.47;;;16.56;100.00
70546;BME280;58098;51.680;5.134;2023-05-12T07:55:57;101714.03;;;16.76;100.00
70546;BME280;58098;51.680;5.134;2023-05-12T07:58:22;101681.72;;;16.55;100.00
70546;BME280;58098;51.680;5.134;2023-05-12T08:00:47;101713.19;;;16.66;100.00
70546;BME280;58098;51.680;5.134;2023-05-12T08:03:13;101720.41;;;16.83;100.00
70546;BME280;58098;51.680;5.134;2023-05-12T08:05:40;101712.06;;;16.87;100.00
70546;BME280;58098;51.680;5.134;2023-05-12T08:08:05;101713.16;;;17.04;100.00
70546;BME280;58098;51.680;5.134;2023-05-12T08:10:31;101714.25;;;17.11;100.00
70546;BME280;58098;51.680;5.134;2023-05-12T08:12:57;101722.19;;;17.01;100.00
70546;BME280;58098;51.680;5.134;2023-05-12T08:15:22;101731.47;;;17.15;100.00
70546;BME280;58098;51.680;5.134;2023-05-12T08:17:48;101724.81;;;17.11;100.00
70546;BME280;58098;51.680;5.134;2023-05-12T08:20:13;101733.97;;;17.16;100.00
70546;BME280;58098;51.680;5.134;2023-05-12T08:22:39;101730.72;;;17.42;100.00
70546;BME280;58098;51.680;5.134;2023-05-12T08:25:06;101720.13;;;17.61;100.00
70546;BME280;58098;51.680;5.134;2023-05-12T08:27:31;101733.25;;;17.80;100.00
70546;BME280;58098;51.680;5.134;2023-05-12T08:29:57;101743.75;;;17.90;100.00
70546;BME280;58098;51.680;5.134;2023-05-12T08:32:22;101736.84;;;17.79;100.00
70546;BME280;58098;51.680;5.134;2023-05-12T08:34:48;101749.66;;;17.84;100.00
70546;BME280;58098;51.680;5.134;2023-05-12T08:37:13;101733.47;;;17.87;100.00
70546;BME280;58098;51.680;5.134;2023-05-12T08:39:39;101730.06;;;18.04;100.00
70546;BME280;58098;51.680;5.134;2023-05-12T08:42:36;101749.91;;;18.35;100.00
70546;BME280;58098;51.680;5.134;2023-05-12T08:45:05;101735.13;;;18.42;100.00
70546;BME280;58098;51.680;5.134;2023-05-12T08:47:32;101749.38;;;18.76;100.00
70546;BME280;58098;51.680;5.134;2023-05-12T08:49:59;101756.59;;;18.74;100.00
70546;BME280;58098;51.680;5.134;2023-05-12T08:52:26;101753.50;;;18.79;100.00
70546;BME280;58098;51.680;5.134;2023-05-12T08:54:53;101756.41;;;18.85;100.00
70546;BME280;58098;51.680;5.134;2023-05-12T08:57:20;101761.06;;;18.91;100.00
70546;BME280;58098;51.680;5.134;2023-05-12T08:59:46;101772.59;;;19.08;100.00
70546;BME280;58098;51.680;5.134;2023-05-12T09:02:12;101759.31;;;19.18;100.00
70546;BME280;58098;51.680;5.134;2023-05-12T09:04:38;101773.31;;;19.36;100.00
70546;BME280;58098;51.680;5.134;2023-05-12T09:07:04;101773.19;;;19.37;100.00
70546;BME280;58098;51.680;5.134;2023-05-12T09:09:32;101766.91;;;19.64;100.00
70546;BME280;58098;51.680;5.134;2023-05-12T09:12:00;101753.28;;;19.85;100.00
70546;BME280;58098;51.680;5.134;2023-05-12T09:14:28;101754.41;;;20.16;100.00
70546;BME280;58098;51.680;5.134;2023-05-12T09:17:00;101798.31;;;20.18;100.00
70546;BME280;58098;51.680;5.134;2023-05-12T09:19:25;101772.28;;;20.14;100.00
70546;BME280;58098;51.680;5.134;2023-05-12T09:21:51;101782.50;;;20.34;100.00
70546;BME280;58098;51.680;5.134;2023-05-12T09:24:16;101780.56;;;20.53;100.00
70546;BME280;58098;51.680;5.134;2023-05-12T09:26:46;101786.84;;;20.60;100.00
70546;BME280;58098;51.680;5.134;2023-05-12T09:29:12;101777.53;;;20.39;100.00
70546;BME280;58098;51.680;5.134;2023-05-12T09:31:37;101782.34;;;20.36;100.00
70546;BME280;58098;51.680;5.134;2023-05-12T09:34:09;101794.66;;;20.69;100.00
70546;BME280;58098;51.680;5.134;2023-05-12T09:36:34;101789.47;;;20.52;100.00
70546;BME280;58098;51.680;5.134;2023-05-12T09:39:03;101804.31;;;20.70;100.00
70546;BME280;58098;51.680;5.134;2023-05-12T09:41:36;101787.88;;;20.91;100.00
70546;BME280;58098;51.680;5.134;2023-05-12T09:44:02;101798.38;;;21.09;100.00
70546;BME280;58098;51.680;5.134;2023-05-12T09:46:27;101804.16;;;20.96;100.00
70546;BME280;58098;51.680;5.134;2023-05-12T09:48:56;101810.16;;;21.22;100.00
70546;BME280;58098;51.680;5.134;2023-05-12T09:51:22;101809.50;;;21.36;100.00
70546;BME280;58098;51.680;5.134;2023-05-12T09:53:48;101805.19;;;21.11;100.00
70546;BME280;58098;51.680;5.134;2023-05-12T09:56:15;101815.16;;;21.25;100.00
70546;BME280;58098;51.680;5.134;2023-05-12T09:58:43;101802.88;;;21.24;100.00
70546;BME280;58098;51.680;5.134;2023-05-12T10:01:11;101808.97;;;21.57;100.00
70546;BME280;58098;51.680;5.134;2023-05-12T10:03:39;101805.00;;;21.61;100.00
70546;BME280;58098;51.680;5.134;2023-05-12T10:06:11;101808.19;;;21.24;100.00
70546;BME280;58098;51.680;5.134;2023-05-12T10:08:47;101800.53;;;20.97;100.00
70546;BME280;58098;51.680;5.134;2023-05-12T10:11:15;101801.13;;;20.67;100.00
70546;BME280;58098;51.680;5.134;2023-05-12T10:13:42;101806.44;;;20.67;100.00
70546;BME280;58098;51.680;5.134;2023-05-12T10:16:08;101805.47;;;20.84;100.00
70546;BME280;58098;51.680;5.134;2023-05-12T10:18:34;101808.38;;;21.15;100.00
70546;BME280;58098;51.680;5.134;2023-05-12T10:21:00;101802.22;;;21.14;100.00
70546;BME280;58098;51.680;5.134;2023-05-12T10:23:27;101805.00;;;21.37;100.00
70546;BME280;58098;51.680;5.134;2023-05-12T10:25:55;101806.53;;;21.31;100.00
70546;BME280;58098;51.680;5.134;2023-05-12T10:28:23;101808.03;;;21.34;100.00
70546;BME280;58098;51.680;5.134;2023-05-12T10:30:50;101808.84;;;21.18;100.00
70546;BME280;58098;51.680;5.134;2023-05-12T10:33:15;101822.75;;;21.52;100.00
70546;BME280;58098;51.680;5.134;2023-05-12T10:35:42;101813.31;;;21.42;100.00
70546;BME280;58098;51.680;5.134;2023-05-12T10:38:12;101806.81;;;21.44;100.00
70546;BME280;58098;51.680;5.134;2023-05-12T10:41:08;101822.44;;;21.63;100.00
70546;BME280;58098;51.680;5.134;2023-05-12T10:43:41;101813.78;;;21.61;100.00
70546;BME280;58098;51.680;5.134;2023-05-12T10:48:59;101809.13;;;22.26;100.00
70546;BME280;58098;51.680;5.134;2023-05-12T10:51:30;101801.00;;;22.20;100.00
70546;BME280;58098;51.680;5.134;2023-05-12T10:54:01;101802.53;;;22.45;100.00
70546;BME280;58098;51.680;5.134;2023-05-12T10:59:22;101816.31;;;23.47;100.00
70546;BME280;58098;51.680;5.134;2023-05-12T11:02:12;101817.25;;;23.32;100.00
70546;BME280;58098;51.680;5.134;2023-05-12T11:04:48;101820.66;;;23.26;100.00
70546;BME280;58098;51.680;5.134;2023-05-12T11:07:15;101815.81;;;23.07;100.00
70546;BME280;58098;51.680;5.134;2023-05-12T11:09:42;101824.25;;;23.33;100.00
70546;BME280;58098;51.680;5.134;2023-05-12T11:12:09;101814.50;;;23.02;100.00
70546;BME280;58098;51.680;5.134;2023-05-12T11:14:35;101818.69;;;23.20;100.00
70546;BME280;58098;51.680;5.134;2023-05-12T11:17:01;101835.75;;;23.11;100.00
70546;BME280;58098;51.680;5.134;2023-05-12T11:19:27;101814.19;;;22.97;100.00
70546;BME280;58098;51.680;5.134;2023-05-12T11:21:53;101829.63;;;23.25;100.00
70546;BME280;58098;51.680;5.134;2023-05-12T11:24:21;101838.06;;;23.36;100.00
70546;BME280;58098;51.680;5.134;2023-05-12T11:26:47;101853.59;;;23.25;100.00
70546;BME280;58098;51.680;5.134;2023-05-12T11:29:19;101841.91;;;23.34;100.00
70546;BME280;58098;51.680;5.134;2023-05-12T11:31:49;101845.72;;;23.54;100.00
70546;BME280;58098;51.680;5.134;2023-05-12T11:34:15;101852.06;;;23.30;100.00
70546;BME280;58098;51.680;5.134;2023-05-12T11:36:44;101856.13;;;23.26;100.00
70546;BME280;58098;51.680;5.134;2023-05-12T11:39:23;101852.84;;;23.39;100.00
70546;BME280;58098;51.680;5.134;2023-05-12T11:41:49;101858.78;;;23.26;100.00
70546;BME280;58098;51.680;5.134;2023-05-12T11:44:16;101857.81;;;22.96;100.00
70546;BME280;58098;51.680;5.134;2023-05-12T11:47:02;101865.94;;;23.03;100.00
70546;BME280;58098;51.680;5.134;2023-05-12T11:49:29;101860.97;;;22.69;100.00
70546;BME280;58098;51.680;5.134;2023-05-12T11:51:57;101865.91;;;22.80;100.00
70546;BME280;58098;51.680;5.134;2023-05-12T11:54:23;101860.53;;;22.88;100.00
70546;BME280;58098;51.680;5.134;2023-05-12T11:56:53;101866.19;;;22.85;100.00
70546;BME280;58098;51.680;5.134;2023-05-12T11:59:29;101876.03;;;23.08;100.00
70546;BME280;58098;51.680;5.134;2023-05-12T12:01:56;101853.69;;;23.17;100.00
70546;BME280;58098;51.680;5.134;2023-05-12T12:04:32;101874.47;;;23.44;100.00
70546;BME280;58098;51.680;5.134;2023-05-12T12:06:58;101864.34;;;23.39;100.00
70546;BME280;58098;51.680;5.134;2023-05-12T12:09:37;101881.06;;;23.85;100.00
70546;BME280;58098;51.680;5.134;2023-05-12T12:12:03;101874.81;;;23.78;100.00
70546;BME280;58098;51.680;5.134;2023-05-12T12:14:30;101880.47;;;24.12;100.00
70546;BME280;58098;51.680;5.134;2023-05-12T12:16:57;101861.06;;;24.48;100.00
70546;BME280;58098;51.680;5.134;2023-05-12T12:19:22;101865.16;;;25.01;100.00
70546;BME280;58098;51.680;5.134;2023-05-12T12:21:47;101871.59;;;25.06;100.00
70546;BME280;58098;51.680;5.134;2023-05-12T12:24:13;101865.06;;;25.36;100.00
70546;BME280;58098;51.680;5.134;2023-05-12T12:26:39;101879.09;;;25.60;100.00
70546;BME280;58098;51.680;5.134;2023-05-12T12:29:04;101863.84;;;25.88;100.00
70546;BME280;58098;51.680;5.134;2023-05-12T12:31:30;101874.91;;;26.47;100.00
70546;BME280;58098;51.680;5.134;2023-05-12T12:33:55;101888.88;;;26.90;100.00
70546;BME280;58098;51.680;5.134;2023-05-12T12:36:20;101863.34;;;26.94;100.00
70546;BME280;58098;51.680;5.134;2023-05-12T12:38:46;101849.88;;;26.74;100.00
70546;BME280;58098;51.680;5.134;2023-05-12T12:41:12;101871.63;;;27.12;100.00
70546;BME280;58098;51.680;5.134;2023-05-12T12:43:37;101875.34;;;27.37;100.00